createdAt,value
2022-11-08T00:01:40.095Z,84.24
2022-11-08T00:03:41.657Z,83.87
2022-11-08T00:06:01.831Z,84.39
2022-11-08T00:08:22.634Z,84.42
2022-11-08T00:10:42.546Z,84.91
2022-11-08T00:13:02.312Z,84.23
2022-11-08T00:15:04.914Z,84.56
2022-11-08T00:17:06.719Z,84.66
2022-11-08T00:19:08.184Z,85.19
2022-11-08T00:21:09.628Z,84.86
2022-11-08T00:23:11.067Z,84.87
2022-11-08T00:25:12.569Z,84.92
2022-11-08T00:27:19.680Z,84.83
2022-11-08T00:29:21.121Z,84.70
2022-11-08T00:31:22.625Z,85.18
2022-11-08T00:33:24.062Z,84.76
2022-11-08T00:35:25.642Z,85.21
2022-11-08T00:37:27.168Z,84.89
2022-11-08T00:39:28.642Z,85.42
2022-11-08T00:41:30.107Z,85.45
2022-11-08T00:43:31.601Z,85.27
2022-11-08T00:45:33.047Z,85.22
2022-11-08T00:47:34.475Z,85.55
2022-11-08T00:49:35.967Z,84.95
2022-11-08T00:51:37.772Z,85.31
2022-11-08T00:53:40.039Z,84.85
2022-11-08T00:55:41.507Z,84.80
2022-11-08T00:57:58.475Z,84.43
2022-11-08T01:00:00.738Z,83.47
2022-11-08T01:02:02.278Z,83.99
2022-11-08T01:04:03.950Z,84.04
2022-11-08T01:06:09.298Z,84.21
2022-11-08T01:08:12.118Z,83.92
2022-11-08T01:10:13.559Z,84.25
2022-11-08T01:12:14.994Z,84.24
2022-11-08T01:14:16.557Z,84.21
2022-11-08T01:16:21.167Z,84.04
2022-11-08T01:18:22.583Z,84.54
2022-11-08T01:20:24.054Z,83.98
2022-11-08T01:22:25.489Z,83.73
2022-11-08T01:24:26.903Z,84.47
2022-11-08T01:26:29.380Z,84.40
2022-11-08T01:28:31.680Z,84.16
2022-11-08T01:30:37.586Z,84.41
2022-11-08T01:32:39.030Z,84.24
2022-11-08T01:34:40.457Z,84.77
2022-11-08T01:36:41.920Z,84.39
2022-11-08T01:38:43.987Z,84.83
2022-11-08T01:40:47.401Z,84.91
2022-11-08T01:42:48.920Z,84.63
2022-11-08T01:45:01.600Z,84.88
2022-11-08T01:47:03.086Z,84.96
2022-11-08T01:49:43.361Z,84.92
2022-11-08T01:52:05.871Z,85.09
2022-11-08T01:54:11.167Z,85.07
2022-11-08T01:56:14.474Z,85.47
2022-11-08T01:58:21.347Z,85.28
2022-11-08T02:00:22.885Z,85.11
2022-11-08T02:02:24.719Z,85.72
2022-11-08T02:04:26.264Z,85.31
2022-11-08T02:06:31.172Z,85.30
2022-11-08T02:08:36.779Z,85.11
2022-11-08T02:10:40.657Z,85.39
2022-11-08T02:12:42.925Z,85.51
2022-11-08T02:14:44.438Z,85.46
2022-11-08T02:16:45.907Z,85.82
2022-11-08T02:18:48.712Z,85.24
2022-11-08T02:21:16.575Z,85.45
2022-11-08T02:23:28.979Z,85.79
2022-11-08T02:25:30.540Z,85.79
2022-11-08T02:27:32.005Z,84.85
2022-11-08T02:29:35.661Z,84.76
2022-11-08T02:31:37.102Z,85.10
2022-11-08T02:33:39.460Z,85.89
2022-11-08T02:35:41.458Z,86.07
2022-11-08T02:37:43.899Z,86.08
2022-11-08T02:39:46.383Z,85.89
2022-11-08T02:41:47.909Z,85.66
2022-11-08T02:43:49.424Z,85.92
2022-11-08T02:45:52.025Z,86.17
2022-11-08T02:47:53.460Z,86.08
2022-11-08T02:49:54.980Z,86.22
2022-11-08T02:51:56.449Z,86.34
2022-11-08T02:53:57.908Z,86.22
2022-11-08T02:55:59.426Z,86.17
2022-11-08T02:58:01.557Z,86.21
2022-11-08T03:00:03.520Z,86.78
2022-11-08T03:02:05.111Z,86.72
2022-11-08T03:04:06.662Z,86.37
2022-11-08T03:06:08.233Z,86.73
2022-11-08T03:08:09.665Z,87.02
2022-11-08T03:10:11.921Z,86.77
2022-11-08T03:12:13.395Z,86.93
2022-11-08T03:14:14.893Z,87.36
2022-11-08T03:16:16.402Z,87.49
2022-11-08T03:18:18.227Z,87.37
2022-11-08T03:20:19.927Z,87.27
2022-11-08T03:22:21.361Z,87.54
2022-11-08T03:24:22.788Z,87.52
2022-11-08T03:26:24.262Z,87.47
2022-11-08T03:28:26.073Z,87.52
2022-11-08T03:30:27.719Z,87.31
2022-11-08T03:32:29.195Z,87.36
2022-11-08T03:34:30.621Z,87.09
2022-11-08T03:36:32.125Z,87.47
2022-11-08T03:38:33.589Z,87.64
2022-11-08T03:40:35.060Z,87.57
2022-11-08T03:42:36.461Z,87.79
2022-11-08T03:44:37.882Z,87.73
2022-11-08T03:46:39.314Z,87.78
2022-11-08T03:48:40.732Z,88.09
2022-11-08T03:50:42.248Z,88.13
2022-11-08T03:52:48.744Z,87.77
2022-11-08T03:54:50.177Z,88.35
2022-11-08T03:56:51.641Z,88.15
2022-11-08T03:58:53.073Z,88.54
2022-11-08T04:00:54.691Z,88.33
2022-11-08T04:03:01.884Z,88.36
2022-11-08T04:05:03.901Z,88.35
2022-11-08T04:07:05.342Z,88.90
2022-11-08T04:09:06.768Z,88.43
2022-11-08T04:11:26.436Z,88.86
2022-11-08T04:13:46.302Z,89.08
2022-11-08T04:15:53.879Z,88.64
2022-11-08T04:18:33.773Z,89.03
2022-11-08T04:21:04.839Z,89.15
2022-11-08T04:23:06.247Z,89.32
2022-11-08T04:25:08.111Z,89.19
2022-11-08T04:27:09.752Z,89.31
2022-11-08T04:29:11.228Z,89.68
2022-11-08T04:31:20.149Z,89.72
2022-11-08T04:33:22.332Z,89.46
2022-11-08T04:35:23.775Z,89.66
2022-11-08T04:37:25.187Z,89.60
2022-11-08T04:39:26.628Z,89.55
2022-11-08T04:41:28.416Z,89.57
2022-11-08T04:43:31.134Z,89.50
2022-11-08T04:45:32.556Z,89.34
2022-11-08T04:47:39.389Z,89.34
2022-11-08T04:49:42.563Z,89.24
2022-11-08T04:51:44.009Z,89.08
2022-11-08T04:53:45.909Z,89.05
2022-11-08T04:55:47.442Z,89.00
2022-11-08T04:57:49.635Z,89.12
2022-11-08T04:59:51.067Z,89.19
2022-11-08T05:01:52.630Z,89.33
2022-11-08T05:03:54.850Z,89.57
2022-11-08T05:05:56.363Z,89.19
2022-11-08T05:07:57.789Z,89.48
2022-11-08T05:10:02.376Z,89.55
2022-11-08T05:12:04.393Z,89.35
2022-11-08T05:14:05.825Z,89.36
2022-11-08T05:16:11.497Z,89.50
2022-11-08T05:18:12.927Z,89.38
2022-11-08T05:20:32.785Z,89.43
2022-11-08T05:22:52.512Z,89.53
2022-11-08T05:24:54.015Z,89.65
2022-11-08T05:26:55.470Z,89.55
2022-11-08T05:28:56.990Z,89.37
2022-11-08T05:30:58.523Z,89.09
2022-11-08T05:32:59.960Z,89.09
2022-11-08T05:35:01.431Z,88.94
2022-11-08T05:37:02.859Z,89.04
2022-11-08T05:39:04.397Z,89.21
2022-11-08T05:41:11.933Z,88.80
2022-11-08T05:43:13.628Z,89.03
2022-11-08T05:45:15.416Z,89.10
2022-11-08T05:47:16.862Z,88.88
2022-11-08T05:49:18.293Z,88.86
2022-11-08T05:51:20.539Z,89.21
2022-11-08T05:53:22.073Z,89.54
2022-11-08T05:55:23.805Z,88.93
2022-11-08T05:57:25.285Z,88.12
2022-11-08T05:59:26.745Z,88.37
2022-11-08T06:01:28.270Z,88.17
2022-11-08T06:03:30.311Z,87.45
2022-11-08T06:05:33.055Z,87.72
2022-11-08T06:07:35.242Z,88.40
2022-11-08T06:09:36.679Z,88.94
2022-11-08T06:11:38.304Z,89.35
2022-11-08T06:13:40.528Z,89.62
2022-11-08T06:15:41.976Z,88.82
2022-11-08T06:17:43.500Z,88.61
2022-11-08T06:19:44.985Z,88.58
2022-11-08T06:21:46.451Z,88.95
2022-11-08T06:23:51.264Z,88.96
2022-11-08T06:25:53.205Z,89.04
2022-11-08T06:27:54.622Z,89.27
2022-11-08T06:29:56.438Z,89.59
2022-11-08T06:31:58.772Z,89.41
2022-11-08T06:34:00.204Z,89.13
2022-11-08T06:36:02.154Z,89.04
2022-11-08T06:38:09.052Z,89.30
2022-11-08T06:40:11.219Z,89.47
2022-11-08T06:42:12.712Z,89.95
2022-11-08T06:44:14.247Z,89.78
2022-11-08T06:46:15.877Z,89.75
2022-11-08T06:48:17.316Z,89.30
2022-11-08T06:50:18.747Z,89.46
2022-11-08T06:52:20.178Z,89.25
2022-11-08T06:54:25.802Z,89.76
2022-11-08T06:56:28.349Z,89.50
2022-11-08T06:58:30.771Z,89.55
2022-11-08T07:00:32.444Z,89.50
2022-11-08T07:02:34.093Z,88.84
2022-11-08T07:04:35.790Z,89.43
2022-11-08T07:06:37.342Z,89.63
2022-11-08T07:08:38.764Z,89.56
2022-11-08T07:10:40.713Z,89.22
2022-11-08T07:12:42.159Z,90.25
2022-11-08T07:14:43.587Z,89.67
2022-11-08T07:16:45.108Z,89.81
2022-11-08T07:18:46.783Z,89.97
2022-11-08T07:20:48.366Z,89.63
2022-11-08T07:22:49.789Z,89.50
2022-11-08T07:24:51.289Z,88.95
2022-11-08T07:26:52.732Z,88.46
2022-11-08T07:28:54.249Z,88.50
2022-11-08T07:30:59.922Z,88.26
2022-11-08T07:33:01.488Z,87.96
2022-11-08T07:35:03.864Z,87.82
2022-11-08T07:37:05.312Z,87.26
2022-11-08T07:39:07.099Z,86.79
2022-11-08T07:41:09.254Z,86.60
2022-11-08T07:43:12.562Z,86.54
2022-11-08T07:45:14.745Z,86.52
2022-11-08T07:47:16.207Z,86.06
2022-11-08T07:49:17.643Z,85.67
2022-11-08T07:51:19.077Z,85.45
2022-11-08T07:53:21.096Z,84.93
2022-11-08T07:55:22.725Z,84.55
2022-11-08T07:57:24.214Z,84.44
2022-11-08T07:59:25.649Z,84.24
2022-11-08T08:01:27.140Z,83.99
2022-11-08T08:03:28.859Z,84.01
2022-11-08T08:05:34.554Z,83.71
2022-11-08T08:07:37.019Z,84.00
2022-11-08T08:09:38.478Z,83.98
2022-11-08T08:11:39.879Z,84.20
2022-11-08T08:13:41.623Z,83.71
2022-11-08T08:15:43.089Z,83.76
2022-11-08T08:17:44.509Z,83.78
2022-11-08T08:19:45.934Z,83.43
2022-11-08T08:21:47.331Z,82.85
2022-11-08T08:23:48.742Z,83.08
2022-11-08T08:25:50.135Z,82.61
2022-11-08T08:27:53.962Z,82.31
2022-11-08T08:29:56.132Z,82.02
2022-11-08T08:31:57.669Z,82.08
2022-11-08T08:33:59.087Z,81.38
2022-11-08T08:36:01.738Z,81.92
2022-11-08T08:38:04.476Z,81.63
2022-11-08T08:40:06.886Z,81.65
2022-11-08T08:42:08.821Z,81.27
2022-11-08T08:44:10.761Z,81.69
2022-11-08T08:46:12.230Z,81.42
2022-11-08T08:48:13.776Z,81.13
2022-11-08T08:50:15.221Z,80.91
2022-11-08T08:52:16.666Z,80.91
2022-11-08T08:54:18.255Z,80.34
2022-11-08T08:56:19.656Z,80.39
2022-11-08T08:58:21.549Z,79.95
2022-11-08T09:02:45.489Z,79.10
2022-11-08T09:04:46.902Z,79.33
2022-11-08T09:06:48.368Z,79.14
2022-11-08T09:08:50.156Z,79.23
2022-11-08T09:11:00.089Z,78.89
2022-11-08T09:13:02.513Z,78.69
2022-11-08T09:15:05.078Z,78.58
2022-11-08T09:17:06.496Z,78.41
2022-11-08T09:19:07.927Z,77.83
2022-11-08T09:21:10.513Z,78.29
2022-11-08T09:23:12.195Z,77.56
2022-11-08T09:25:13.859Z,76.86
2022-11-08T09:27:15.376Z,77.28
2022-11-08T09:29:16.834Z,76.91
2022-11-08T09:31:18.253Z,76.67
2022-11-08T09:33:20.114Z,77.09
2022-11-08T09:35:22.559Z,76.74
2022-11-08T09:37:24.554Z,76.79
2022-11-08T09:39:26.038Z,76.27
2022-11-08T09:41:46.665Z,75.78
2022-11-08T09:44:23.573Z,75.70
2022-11-08T09:46:33.739Z,75.20
2022-11-08T09:48:38.692Z,75.48
2022-11-08T09:50:44.141Z,75.02
2022-11-08T09:52:55.120Z,73.80
2022-11-08T09:55:14.181Z,73.20
2022-11-08T09:57:26.631Z,72.37
2022-11-08T09:59:46.022Z,71.96
2022-11-08T10:01:48.908Z,72.65
2022-11-08T10:03:56.186Z,72.34
2022-11-08T10:06:42.344Z,71.93
2022-11-08T10:08:46.402Z,71.57
2022-11-08T10:11:06.471Z,70.27
2022-11-08T10:13:17.007Z,70.37
2022-11-08T10:15:28.331Z,70.50
2022-11-08T10:18:31.806Z,70.34
2022-11-08T10:20:42.388Z,69.64
2022-11-08T10:22:52.622Z,70.01
2022-11-08T10:24:59.774Z,69.89
2022-11-08T10:27:02.787Z,70.04
2022-11-08T10:29:14.033Z,69.65
2022-11-08T10:31:17.759Z,70.04
2022-11-08T10:33:24.878Z,69.67
2022-11-08T10:35:44.401Z,68.83
2022-11-08T10:37:49.250Z,68.85
2022-11-08T10:40:04.021Z,69.14
2022-11-08T10:42:11.336Z,68.20
2022-11-08T10:44:15.960Z,68.86
2022-11-08T10:46:42.435Z,68.39
2022-11-08T10:48:43.861Z,68.35
2022-11-08T10:50:48.604Z,67.98
2022-11-08T10:53:05.973Z,68.12
2022-11-08T10:55:30.909Z,68.74
2022-11-08T10:57:32.278Z,67.79
2022-11-08T10:59:34.129Z,68.13
2022-11-08T11:01:35.617Z,68.44
2022-11-08T11:03:37.080Z,67.65
2022-11-08T11:05:42.583Z,67.75
2022-11-08T11:08:09.913Z,68.58
2022-11-08T11:10:37.875Z,68.43
2022-11-08T11:12:39.423Z,67.79
2022-11-08T11:14:40.878Z,67.23
2022-11-08T11:16:48.354Z,65.75
2022-11-08T11:18:52.699Z,65.20
2022-11-08T11:21:15.135Z,65.07
2022-11-08T11:23:16.569Z,65.31
2022-11-08T11:25:21.501Z,65.52
2022-11-08T11:27:30.979Z,65.77
2022-11-08T11:29:34.614Z,65.77
2022-11-08T11:31:38.628Z,65.62
2022-11-08T11:33:46.374Z,65.45
2022-11-08T11:36:12.225Z,65.65
2022-11-08T11:38:39.380Z,66.21
2022-11-08T11:40:45.619Z,65.65
2022-11-08T11:42:59.242Z,65.59
2022-11-08T11:45:14.118Z,65.85
2022-11-08T11:47:30.968Z,65.97
2022-11-08T11:49:35.444Z,66.06
2022-11-08T11:51:36.944Z,64.80
2022-11-08T11:53:41.734Z,65.35
2022-11-08T11:56:13.903Z,64.67
2022-11-08T11:58:39.047Z,64.75
2022-11-08T12:00:51.025Z,64.94
2022-11-08T12:03:22.245Z,65.37
2022-11-08T12:05:51.778Z,64.39
2022-11-08T12:08:02.085Z,64.84
2022-11-08T12:10:28.715Z,64.18
2022-11-08T12:12:57.821Z,64.24
2022-11-08T12:15:23.895Z,63.57
2022-11-08T12:17:46.549Z,63.91
2022-11-08T12:20:22.810Z,63.75
2022-11-08T12:22:48.089Z,63.37
2022-11-08T12:25:21.792Z,62.70
2022-11-08T12:28:01.297Z,62.80
2022-11-08T12:30:12.347Z,62.42
2022-11-08T12:32:34.833Z,62.37
2022-11-08T12:34:52.734Z,62.56
2022-11-08T12:37:19.010Z,63.69
2022-11-08T12:39:32.909Z,63.08
2022-11-08T12:41:46.073Z,62.98
2022-11-08T12:44:19.146Z,62.39
2022-11-08T12:46:21.335Z,62.90
2022-11-08T12:49:01.096Z,62.37
2022-11-08T12:51:21.012Z,62.40
2022-11-08T12:53:48.806Z,62.43
2022-11-08T12:55:51.680Z,62.15
2022-11-08T12:57:55.594Z,62.00
2022-11-08T13:00:15.033Z,62.65
2022-11-08T13:02:26.700Z,62.02
2022-11-08T13:04:46.702Z,62.82
2022-11-08T13:07:37.608Z,62.22
2022-11-08T13:09:46.488Z,61.73
2022-11-08T13:12:18.867Z,61.63
2022-11-08T13:14:22.013Z,62.50
2022-11-08T13:16:39.254Z,61.28
2022-11-08T13:18:45.154Z,61.32
2022-11-08T13:20:48.794Z,62.62
2022-11-08T13:23:00.730Z,61.66
2022-11-08T13:25:27.978Z,61.33
2022-11-08T13:27:38.033Z,62.02
2022-11-08T13:29:39.484Z,62.43
2022-11-08T13:31:44.984Z,62.55
2022-11-08T13:34:03.384Z,61.74
2022-11-08T13:36:35.618Z,61.52
2022-11-08T13:39:35.841Z,61.75
2022-11-08T13:42:01.815Z,61.64
2022-11-08T13:44:41.758Z,61.88
2022-11-08T13:46:46.603Z,61.33
2022-11-08T13:49:06.266Z,61.30
2022-11-08T13:51:35.832Z,61.19
2022-11-08T13:53:54.328Z,61.12
2022-11-08T13:56:17.337Z,61.20
2022-11-08T13:58:50.978Z,60.79
2022-11-08T14:00:52.436Z,60.97
2022-11-08T14:02:54.084Z,62.99
2022-11-08T14:05:15.201Z,62.00
2022-11-08T14:07:31.591Z,61.49
2022-11-08T14:09:40.570Z,61.61
2022-11-08T14:11:52.276Z,61.44
2022-11-08T14:14:05.813Z,61.33
2022-11-08T14:16:16.615Z,60.89
2022-11-08T14:18:28.471Z,61.17
2022-11-08T14:20:48.778Z,60.65
2022-11-08T14:22:51.119Z,61.39
2022-11-08T14:25:06.594Z,60.60
2022-11-08T14:27:10.990Z,60.80
2022-11-08T14:29:17.558Z,61.84
2022-11-08T14:31:28.148Z,60.38
2022-11-08T14:33:31.990Z,60.73
2022-11-08T14:35:33.675Z,60.50
2022-11-08T14:37:35.195Z,60.05
2022-11-08T14:39:37.159Z,60.09
2022-11-08T14:41:39.272Z,60.48
2022-11-08T14:43:47.159Z,60.18
2022-11-08T14:45:49.372Z,60.25
2022-11-08T14:48:15.187Z,60.23
2022-11-08T14:50:24.242Z,60.35
2022-11-08T14:52:31.669Z,60.33
2022-11-08T14:54:39.470Z,60.02
2022-11-08T14:56:43.300Z,60.29
2022-11-08T14:58:46.155Z,60.03
2022-11-08T15:00:48.691Z,60.32
2022-11-08T15:02:54.140Z,60.14
2022-11-08T15:04:55.728Z,60.95
2022-11-08T15:06:58.961Z,60.11
2022-11-08T15:09:01.963Z,60.21
2022-11-08T15:11:10.830Z,59.43
2022-11-08T15:13:12.277Z,59.74
2022-11-08T15:15:40.077Z,60.51
2022-11-08T15:17:41.588Z,59.38
2022-11-08T15:19:45.099Z,59.48
2022-11-08T15:21:49.187Z,59.26
2022-11-08T15:23:56.006Z,59.20
2022-11-08T15:25:59.078Z,59.66
2022-11-08T15:28:19.416Z,59.17
2022-11-08T15:30:30.028Z,58.95
2022-11-08T15:32:39.655Z,58.81
2022-11-08T15:34:41.873Z,59.05
2022-11-08T15:36:43.514Z,58.29
2022-11-08T15:38:49.682Z,58.26
2022-11-08T15:40:53.830Z,58.88
2022-11-08T15:42:55.582Z,59.77
2022-11-08T15:45:17.027Z,59.11
2022-11-08T15:47:44.103Z,58.91
2022-11-08T15:49:45.560Z,58.88
2022-11-08T15:51:48.816Z,58.85
2022-11-08T15:53:50.282Z,58.93
2022-11-08T15:55:55.050Z,58.99
2022-11-08T15:57:58.065Z,58.65
2022-11-08T16:00:00.455Z,58.82
2022-11-08T16:02:02.520Z,58.85
2022-11-08T16:04:09.740Z,59.42
2022-11-08T16:06:12.967Z,58.51
2022-11-08T16:08:19.798Z,58.69
2022-11-08T16:10:44.865Z,58.06
2022-11-08T16:12:47.826Z,59.03
2022-11-08T16:14:50.977Z,58.00
2022-11-08T16:16:52.460Z,58.33
2022-11-08T16:18:53.908Z,58.86
2022-11-08T16:20:55.341Z,58.47
2022-11-08T16:22:58.726Z,59.21
2022-11-08T16:25:00.233Z,58.49
2022-11-08T16:27:02.052Z,59.11
2022-11-08T16:29:04.880Z,58.25
2022-11-08T16:31:10.380Z,58.01
2022-11-08T16:33:19.692Z,58.65
2022-11-08T16:35:21.256Z,58.25
2022-11-08T16:37:22.845Z,58.54
2022-11-08T16:39:28.245Z,59.04
2022-11-08T16:41:29.801Z,58.89
2022-11-08T16:43:31.580Z,59.19
2022-11-08T16:46:03.251Z,59.54
2022-11-08T16:47:55.866Z,59.81
2022-11-08T16:49:57.397Z,59.79
2022-11-08T16:51:58.850Z,59.85
2022-11-08T16:54:02.714Z,60.16
2022-11-08T16:56:04.299Z,60.03
2022-11-08T16:58:05.730Z,60.00
2022-11-08T17:00:12.365Z,60.33
2022-11-08T17:02:30.514Z,60.53
2022-11-08T17:04:31.943Z,60.56
2022-11-08T17:06:33.549Z,60.52
2022-11-08T17:08:35.060Z,61.26
2022-11-08T17:10:36.615Z,60.92
2022-11-08T17:12:38.443Z,60.96
2022-11-08T17:14:39.881Z,60.88
2022-11-08T17:16:41.655Z,61.00
2022-11-08T17:18:48.563Z,61.21
2022-11-08T17:20:53.751Z,60.94
2022-11-08T17:22:55.357Z,61.58
2022-11-08T17:24:56.788Z,61.36
2022-11-08T17:26:58.319Z,61.28
2022-11-08T17:28:59.819Z,60.96
2022-11-08T17:31:15.469Z,62.10
2022-11-08T17:33:17.202Z,61.89
2022-11-08T17:35:19.093Z,62.30
2022-11-08T17:37:20.706Z,62.03
2022-11-08T17:39:22.126Z,61.21
2022-11-08T17:41:23.570Z,61.53
2022-11-08T17:43:25.046Z,61.38
2022-11-08T17:45:26.525Z,62.01
2022-11-08T17:47:28.742Z,61.36
2022-11-08T17:49:30.369Z,62.25
2022-11-08T17:51:31.803Z,61.99
2022-11-08T17:53:34.199Z,61.54
2022-11-08T17:55:35.644Z,61.57
2022-11-08T17:57:37.238Z,61.69
2022-11-08T17:59:38.963Z,61.62
2022-11-08T18:01:40.503Z,61.89
2022-11-08T18:03:42.056Z,61.40
2022-11-08T18:06:12.254Z,61.42
2022-11-08T18:08:13.704Z,61.76
2022-11-08T18:10:16.460Z,62.00
2022-11-08T18:12:18.024Z,62.19
2022-11-08T18:14:28.000Z,61.90
2022-11-08T18:16:30.141Z,62.67
2022-11-08T18:18:31.552Z,62.57
2022-11-08T18:20:33.044Z,62.35
2022-11-08T18:22:34.530Z,62.54
2022-11-08T18:24:36.094Z,62.65
2022-11-08T18:26:38.044Z,62.69
2022-11-08T18:28:41.177Z,63.08
2022-11-08T18:30:47.653Z,62.71
2022-11-08T18:32:49.720Z,62.96
2022-11-08T18:34:51.148Z,63.94
2022-11-08T18:36:52.662Z,63.26
2022-11-08T18:38:56.483Z,63.00
2022-11-08T18:40:57.958Z,63.99
2022-11-08T18:42:59.545Z,63.92
2022-11-08T18:45:01.004Z,63.62
2022-11-08T18:47:02.432Z,63.60
2022-11-08T18:49:05.168Z,64.21
2022-11-08T18:51:10.523Z,64.25
2022-11-08T18:53:11.971Z,64.31
2022-11-08T18:55:14.618Z,64.46
2022-11-08T18:57:16.038Z,64.29
2022-11-08T18:59:17.684Z,64.78
2022-11-08T19:01:19.306Z,64.87
2022-11-08T19:03:21.365Z,64.27
2022-11-08T19:05:23.640Z,65.35
2022-11-08T19:07:25.280Z,65.23
2022-11-08T19:09:26.739Z,65.16
2022-11-08T19:11:30.553Z,65.34
2022-11-08T19:13:33.712Z,65.31
2022-11-08T19:15:35.148Z,65.91
2022-11-08T19:17:36.796Z,65.43
2022-11-08T19:19:38.257Z,65.88
2022-11-08T19:21:42.659Z,65.56
2022-11-08T19:23:45.822Z,66.16
2022-11-08T19:25:57.428Z,66.20
2022-11-08T19:27:58.970Z,66.00
2022-11-08T19:30:00.557Z,66.53
2022-11-08T19:32:02.065Z,66.91
2022-11-08T19:34:03.514Z,66.34
2022-11-08T19:36:12.088Z,66.43
2022-11-08T19:38:13.623Z,66.24
2022-11-08T19:40:15.168Z,66.34
2022-11-08T19:42:16.595Z,66.12
2022-11-08T19:44:18.473Z,66.35
2022-11-08T19:46:23.650Z,66.61
2022-11-08T19:48:25.080Z,67.13
2022-11-08T19:50:26.561Z,67.27
2022-11-08T19:52:28.060Z,66.99
2022-11-08T19:54:29.474Z,67.12
2022-11-08T19:58:53.523Z,67.13
2022-11-08T20:00:55.172Z,67.30
2022-11-08T20:02:56.622Z,67.64
2022-11-08T20:04:58.060Z,67.38
2022-11-08T20:06:59.593Z,67.92
2022-11-08T20:09:01.592Z,67.41
2022-11-08T20:11:17.372Z,67.89
2022-11-08T20:13:18.856Z,67.59
2022-11-08T20:15:20.306Z,67.67
2022-11-08T20:17:21.725Z,67.68
2022-11-08T20:19:23.281Z,68.25
2022-11-08T20:21:24.724Z,67.88
2022-11-08T20:23:27.110Z,67.89
2022-11-08T20:25:28.592Z,67.87
2022-11-08T20:27:30.102Z,67.72
2022-11-08T20:29:31.690Z,68.70
2022-11-08T20:31:33.831Z,68.64
2022-11-08T20:33:37.600Z,68.14
2022-11-08T20:35:39.847Z,68.46
2022-11-08T20:37:41.304Z,68.13
2022-11-08T20:39:42.749Z,68.40
2022-11-08T20:41:44.261Z,68.40
2022-11-08T20:43:47.226Z,68.50
2022-11-08T20:45:48.935Z,68.71
2022-11-08T20:47:50.360Z,68.84
2022-11-08T20:49:51.847Z,68.77
2022-11-08T20:51:53.308Z,69.06
2022-11-08T20:53:55.979Z,69.40
2022-11-08T20:55:58.117Z,69.49
2022-11-08T20:57:59.832Z,69.79
2022-11-08T21:00:12.757Z,69.69
2022-11-08T21:02:15.224Z,69.75
2022-11-08T21:04:16.764Z,69.95
2022-11-08T21:06:22.097Z,69.71
2022-11-08T21:10:49.798Z,69.62
2022-11-08T21:12:51.381Z,70.08
2022-11-08T21:14:52.887Z,70.32
2022-11-08T21:19:15.863Z,70.40
2022-11-08T21:21:19.052Z,70.48
2022-11-08T21:23:20.468Z,70.68
2022-11-08T21:25:21.968Z,70.87
2022-11-08T21:27:28.492Z,70.93
2022-11-08T21:29:31.120Z,71.23
2022-11-08T21:31:33.790Z,70.86
2022-11-08T21:33:35.803Z,71.23
2022-11-08T21:35:37.707Z,70.92
2022-11-08T21:37:39.115Z,71.07
2022-11-08T21:39:40.636Z,71.20
2022-11-08T21:41:42.081Z,71.14
2022-11-08T21:43:44.760Z,71.50
2022-11-08T21:45:46.354Z,71.57
2022-11-08T21:47:52.667Z,71.17
2022-11-08T21:49:54.132Z,71.63
2022-11-08T21:51:55.564Z,71.90
2022-11-08T21:53:58.373Z,71.65
2022-11-08T21:55:59.889Z,71.86
2022-11-08T21:58:01.930Z,71.48
2022-11-08T22:00:04.856Z,71.82
2022-11-08T22:02:07.556Z,71.76
2022-11-08T22:04:09.035Z,72.00
2022-11-08T22:06:10.542Z,71.81
2022-11-08T22:08:12.093Z,71.69
2022-11-08T22:10:13.624Z,71.93
2022-11-08T22:12:15.157Z,71.96
2022-11-08T22:14:16.634Z,72.09
2022-11-08T22:16:18.177Z,72.03
2022-11-08T22:18:31.204Z,72.17
2022-11-08T22:21:00.985Z,72.43
2022-11-08T22:23:07.791Z,72.07
2022-11-08T22:25:10.380Z,71.91
2022-11-08T22:27:11.808Z,71.61
2022-11-08T22:29:14.154Z,71.89
2022-11-08T22:31:15.648Z,71.92
2022-11-08T22:33:17.803Z,71.57
2022-11-08T22:35:19.245Z,71.61
2022-11-08T22:37:20.713Z,71.79
2022-11-08T22:39:23.397Z,71.81
2022-11-08T22:41:25.198Z,71.84
2022-11-08T22:43:26.629Z,71.87
2022-11-08T22:45:28.056Z,72.07
2022-11-08T22:47:29.486Z,71.96
2022-11-08T22:49:30.987Z,71.87
2022-11-08T22:51:32.544Z,71.62
2022-11-08T22:53:34.136Z,71.43
2022-11-08T22:55:35.907Z,71.32
2022-11-08T22:57:37.349Z,71.71
2022-11-08T22:59:38.785Z,72.08
2022-11-08T23:01:40.251Z,71.97
2022-11-08T23:03:45.660Z,71.91
2022-11-08T23:05:55.340Z,72.11
2022-11-08T23:07:57.001Z,72.32
2022-11-08T23:09:58.464Z,72.60
2022-11-08T23:12:18.459Z,72.58
2022-11-08T23:14:38.206Z,72.64
2022-11-08T23:16:41.820Z,72.61
2022-11-08T23:19:03.211Z,72.47
2022-11-08T23:21:23.202Z,72.71
2022-11-08T23:24:02.938Z,72.78
2022-11-08T23:26:04.536Z,72.55
2022-11-08T23:28:24.625Z,72.87
2022-11-08T23:30:44.375Z,72.82
2022-11-08T23:32:48.156Z,73.13
2022-11-08T23:34:49.576Z,72.98
2022-11-08T23:36:51.065Z,72.90
2022-11-08T23:38:52.510Z,73.04
2022-11-08T23:41:12.257Z,73.10
2022-11-08T23:43:34.560Z,73.48
2022-11-08T23:45:36.076Z,73.42
2022-11-08T23:47:37.557Z,73.50
2022-11-08T23:49:38.986Z,73.54
2022-11-08T23:51:40.458Z,73.70
2022-11-08T23:53:41.943Z,73.63
2022-11-08T23:55:44.535Z,73.46
2022-11-08T23:57:47.459Z,73.84
2022-11-08T23:59:48.934Z,73.66
